sensor_id;sensor_type;location;lat;lon;timestamp;pressure;altitude;pressure_sealevel;temperature;humidity
76762;BME280;65705;51.032;13.790;2023-04-01T00:00:50;98552.06;;;11.44;69.32
76762;BME280;65705;51.032;13.790;2023-04-01T00:03:16;98554.09;;;11.42;69.41
76762;BME280;65705;51.032;13.790;2023-04-01T00:05:42;98551.25;;;11.44;69.36
76762;BME280;65705;51.032;13.790;2023-04-01T00:08:08;98543.59;;;11.42;69.46
76762;BME280;65705;51.032;13.790;2023-04-01T00:10:33;98533.50;;;11.39;69.61
76762;BME280;65705;51.032;13.790;2023-04-01T00:12:59;98544.41;;;11.43;69.66
76762;BME280;65705;51.032;13.790;2023-04-01T00:15:25;98537.72;;;11.40;70.32
76762;BME280;65705;51.032;13.790;2023-04-01T00:17:51;98539.97;;;11.43;69.48
76762;BME280;65705;51.032;13.790;2023-04-01T00:20:17;98535.91;;;11.41;70.00
76762;BME280;65705;51.032;13.790;2023-04-01T00:22:43;98549.25;;;11.39;69.82
76762;BME280;65705;51.032;13.790;2023-04-01T00:25:09;98532.88;;;11.37;69.36
76762;BME280;65705;51.032;13.790;2023-04-01T00:27:34;98541.16;;;11.41;69.41
76762;BME280;65705;51.032;13.790;2023-04-01T00:30:00;98533.91;;;11.36;69.98
76762;BME280;65705;51.032;13.790;2023-04-01T00:32:27;98535.91;;;11.41;69.36
76762;BME280;65705;51.032;13.790;2023-04-01T00:34:53;98539.94;;;11.37;69.44
76762;BME280;65705;51.032;13.790;2023-04-01T00:37:19;98540.97;;;11.36;69.77
76762;BME280;65705;51.032;13.790;2023-04-01T00:39:46;98542.78;;;11.35;69.52
76762;BME280;65705;51.032;13.790;2023-04-01T00:42:12;98543.97;;;11.33;69.94
76762;BME280;65705;51.032;13.790;2023-04-01T00:44:39;98550.06;;;11.27;70.14
76762;BME280;65705;51.032;13.790;2023-04-01T00:47:06;98556.91;;;11.28;70.25
76762;BME280;65705;51.032;13.790;2023-04-01T00:49:38;98547.81;;;11.30;70.41
76762;BME280;65705;51.032;13.790;2023-04-01T00:52:05;98557.31;;;11.31;70.45
76762;BME280;65705;51.032;13.790;2023-04-01T00:54:34;98548.81;;;11.29;70.46
76762;BME280;65705;51.032;13.790;2023-04-01T00:57:06;98544.41;;;11.23;70.85
76762;BME280;65705;51.032;13.790;2023-04-01T00:59:39;98550.84;;;11.21;70.96
76762;BME280;65705;51.032;13.790;2023-04-01T01:02:08;98540.34;;;11.21;71.05
76762;BME280;65705;51.032;13.790;2023-04-01T01:04:35;98540.13;;;11.22;70.95
76762;BME280;65705;51.032;13.790;2023-04-01T01:10:13;98547.59;;;11.19;71.13
76762;BME280;65705;51.032;13.790;2023-04-01T01:12:46;98544.19;;;11.25;70.77
76762;BME280;65705;51.032;13.790;2023-04-01T01:23:32;98540.75;;;11.24;69.68
76762;BME280;65705;51.032;13.790;2023-04-01T01:37:15;98537.75;;;11.27;68.86
76762;BME280;65705;51.032;13.790;2023-04-01T01:39:43;98532.28;;;11.29;69.15
76762;BME280;65705;51.032;13.790;2023-04-01T01:42:13;98546.81;;;11.25;69.36
76762;BME280;65705;51.032;13.790;2023-04-01T01:44:43;98541.56;;;11.25;69.45
76762;BME280;65705;51.032;13.790;2023-04-01T01:47:10;98540.75;;;11.24;69.28
76762;BME280;65705;51.032;13.790;2023-04-01T01:49:38;98546.00;;;11.24;69.11
76762;BME280;65705;51.032;13.790;2023-04-01T01:52:06;98538.72;;;11.26;69.32
76762;BME280;65705;51.032;13.790;2023-04-01T01:54:31;98541.78;;;11.23;69.29
76762;BME280;65705;51.032;13.790;2023-04-01T01:57:07;98551.44;;;11.23;69.08
76762;BME280;65705;51.032;13.790;2023-04-01T01:59:38;98546.81;;;11.25;68.92
76762;BME280;65705;51.032;13.790;2023-04-01T02:02:06;98545.00;;;11.25;69.01
76762;BME280;65705;51.032;13.790;2023-04-01T02:04:38;98546.81;;;11.25;68.54
76762;BME280;65705;51.032;13.790;2023-04-01T02:07:19;98544.38;;;11.30;68.70
76762;BME280;65705;51.032;13.790;2023-04-01T02:09:48;98550.25;;;11.25;68.92
76762;BME280;65705;51.032;13.790;2023-04-01T02:12:15;98542.75;;;11.22;69.18
76762;BME280;65705;51.032;13.790;2023-04-01T02:14:54;98549.63;;;11.30;68.73
76762;BME280;65705;51.032;13.790;2023-04-01T02:17:24;98543.16;;;11.26;68.96
76762;BME280;65705;51.032;13.790;2023-04-01T02:19:55;98541.38;;;11.20;69.22
76762;BME280;65705;51.032;13.790;2023-04-01T02:22:26;98535.69;;;11.23;69.07
76762;BME280;65705;51.032;13.790;2023-04-01T02:24:56;98541.97;;;11.22;68.63
76762;BME280;65705;51.032;13.790;2023-04-01T02:27:23;98539.72;;;11.19;68.81
76762;BME280;65705;51.032;13.790;2023-04-01T02:29:50;98548.41;;;11.19;68.92
76762;BME280;65705;51.032;13.790;2023-04-01T02:32:17;98541.34;;;11.33;68.20
76762;BME280;65705;51.032;13.790;2023-04-01T02:34:45;98543.97;;;11.26;68.58
76762;BME280;65705;51.032;13.790;2023-04-01T02:37:13;98545.38;;;11.22;68.48
76762;BME280;65705;51.032;13.790;2023-04-01T02:39:39;98559.34;;;11.23;68.46
76762;BME280;65705;51.032;13.790;2023-04-01T02:42:05;98552.06;;;11.25;68.41
76762;BME280;65705;51.032;13.790;2023-04-01T02:44:31;98541.16;;;11.21;68.52
76762;BME280;65705;51.032;13.790;2023-04-01T02:46:57;98554.91;;;11.30;67.64
76762;BME280;65705;51.032;13.790;2023-04-01T02:49:24;98547.44;;;11.27;67.94
76762;BME280;65705;51.032;13.790;2023-04-01T02:51:49;98554.91;;;11.30;67.83
76762;BME280;65705;51.032;13.790;2023-04-01T02:54:17;98559.75;;;11.26;68.18
76762;BME280;65705;51.032;13.790;2023-04-01T02:56:44;98562.97;;;11.28;68.18
76762;BME280;65705;51.032;13.790;2023-04-01T02:59:11;98574.69;;;11.26;67.83
76762;BME280;65705;51.032;13.790;2023-04-01T03:01:37;98553.09;;;11.24;68.11
76762;BME280;65705;51.032;13.790;2023-04-01T03:04:03;98555.31;;;11.27;67.79
76762;BME280;65705;51.032;13.790;2023-04-01T03:06:29;98569.03;;;11.16;68.35
76762;BME280;65705;51.032;13.790;2023-04-01T03:08:55;98567.22;;;11.16;67.90
76762;BME280;65705;51.032;13.790;2023-04-01T03:11:20;98571.44;;;11.17;68.18
76762;BME280;65705;51.032;13.790;2023-04-01T03:13:46;98574.69;;;11.19;68.18
76762;BME280;65705;51.032;13.790;2023-04-01T03:16:13;98573.25;;;11.17;68.28
76762;BME280;65705;51.032;13.790;2023-04-01T03:18:39;98575.28;;;11.21;68.12
76762;BME280;65705;51.032;13.790;2023-04-01T03:21:13;98577.09;;;11.21;68.14
76762;BME280;65705;51.032;13.790;2023-04-01T03:23:39;98583.59;;;11.18;68.22
76762;BME280;65705;51.032;13.790;2023-04-01T03:26:05;98564.97;;;11.13;67.89
76762;BME280;65705;51.032;13.790;2023-04-01T03:28:31;98582.31;;;11.08;68.27
76762;BME280;65705;51.032;13.790;2023-04-01T03:30:56;98585.56;;;11.10;67.88
76762;BME280;65705;51.032;13.790;2023-04-01T03:33:22;98592.66;;;11.16;67.84
76762;BME280;65705;51.032;13.790;2023-04-01T03:35:48;98583.75;;;11.17;67.73
76762;BME280;65705;51.032;13.790;2023-04-01T03:38:18;98586.78;;;11.20;67.82
76762;BME280;65705;51.032;13.790;2023-04-01T03:40:44;98583.34;;;11.13;67.45
76762;BME280;65705;51.032;13.790;2023-04-01T03:43:11;98586.78;;;11.20;67.66
76762;BME280;65705;51.032;13.790;2023-04-01T03:46:03;98594.09;;;11.18;67.60
76762;BME280;65705;51.032;13.790;2023-04-01T03:48:29;98589.41;;;11.14;67.85
76762;BME280;65705;51.032;13.790;2023-04-01T03:50:55;98589.22;;;11.15;67.67
76762;BME280;65705;51.032;13.790;2023-04-01T03:53:22;98600.75;;;11.21;67.51
76762;BME280;65705;51.032;13.790;2023-04-01T03:55:48;98594.25;;;11.17;67.53
76762;BME280;65705;51.032;13.790;2023-04-01T03:58:14;98602.56;;;11.27;66.96
76762;BME280;65705;51.032;13.790;2023-04-01T04:00:40;98603.78;;;11.24;66.78
76762;BME280;65705;51.032;13.790;2023-04-01T04:03:06;98608.22;;;11.17;67.35
76762;BME280;65705;51.032;13.790;2023-04-01T04:05:34;98603.56;;;11.19;67.21
76762;BME280;65705;51.032;13.790;2023-04-01T04:08:01;98595.91;;;11.18;66.98
76762;BME280;65705;51.032;13.790;2023-04-01T04:10:27;98603.16;;;11.16;66.92
76762;BME280;65705;51.032;13.790;2023-04-01T04:12:54;98604.34;;;11.13;66.94
76762;BME280;65705;51.032;13.790;2023-04-01T04:15:25;98598.53;;;11.24;66.43
76762;BME280;65705;51.032;13.790;2023-04-01T04:17:51;98608.25;;;11.24;66.55
76762;BME280;65705;51.032;13.790;2023-04-01T04:20:17;98609.22;;;11.23;66.42
76762;BME280;65705;51.032;13.790;2023-04-01T04:22:43;98611.03;;;11.22;66.23
76762;BME280;65705;51.032;13.790;2023-04-01T04:25:09;98609.63;;;11.20;66.58
76762;BME280;65705;51.032;13.790;2023-04-01T04:27:35;98622.34;;;11.16;66.48
76762;BME280;65705;51.032;13.790;2023-04-01T04:30:10;98625.59;;;11.18;66.59
76762;BME280;65705;51.032;13.790;2023-04-01T04:32:36;98620.34;;;11.25;66.24
76762;BME280;65705;51.032;13.790;2023-04-01T04:35:02;98624.00;;;11.24;66.07
76762;BME280;65705;51.032;13.790;2023-04-01T04:37:28;98621.53;;;11.22;66.10
76762;BME280;65705;51.032;13.790;2023-04-01T04:39:54;98623.38;;;11.28;66.06
76762;BME280;65705;51.032;13.790;2023-04-01T04:42:20;98632.66;;;11.24;65.85
76762;BME280;65705;51.032;13.790;2023-04-01T04:44:46;98626.00;;;11.22;65.91
76762;BME280;65705;51.032;13.790;2023-04-01T04:47:12;98637.53;;;11.27;65.82
76762;BME280;65705;51.032;13.790;2023-04-01T04:49:37;98632.69;;;11.31;65.89
76762;BME280;65705;51.032;13.790;2023-04-01T04:52:07;98635.50;;;11.29;65.84
76762;BME280;65705;51.032;13.790;2023-04-01T04:54:33;98642.81;;;11.47;64.87
76762;BME280;65705;51.032;13.790;2023-04-01T04:57:00;98643.81;;;11.46;64.87
76762;BME280;65705;51.032;13.790;2023-04-01T04:59:31;98640.97;;;11.34;65.35
76762;BME280;65705;51.032;13.790;2023-04-01T05:02:07;98641.19;;;11.39;65.30
76762;BME280;65705;51.032;13.790;2023-04-01T05:04:37;98645.00;;;11.30;65.47
76762;BME280;65705;51.032;13.790;2023-04-01T05:07:04;98645.63;;;11.32;65.63
76762;BME280;65705;51.032;13.790;2023-04-01T05:09:31;98649.47;;;11.36;65.17
76762;BME280;65705;51.032;13.790;2023-04-01T05:11:57;98636.50;;;11.35;65.37
76762;BME280;65705;51.032;13.790;2023-04-01T05:14:25;98642.41;;;11.43;65.08
76762;BME280;65705;51.032;13.790;2023-04-01T05:17:00;98656.53;;;11.42;64.94
76762;BME280;65705;51.032;13.790;2023-04-01T05:19:26;98654.94;;;11.48;65.05
76762;BME280;65705;51.032;13.790;2023-04-01T05:21:52;98650.06;;;11.38;65.34
76762;BME280;65705;51.032;13.790;2023-04-01T05:24:19;98657.16;;;11.38;65.16
76762;BME280;65705;51.032;13.790;2023-04-01T05:26:45;98655.94;;;11.40;65.65
76762;BME280;65705;51.032;13.790;2023-04-01T05:29:11;98659.97;;;11.43;65.65
76762;BME280;65705;51.032;13.790;2023-04-01T05:31:38;98656.34;;;11.37;65.80
76762;BME280;65705;51.032;13.790;2023-04-01T05:34:05;98662.41;;;11.44;65.24
76762;BME280;65705;51.032;13.790;2023-04-01T05:36:30;98666.47;;;11.53;64.84
76762;BME280;65705;51.032;13.790;2023-04-01T05:38:57;98658.38;;;11.48;65.34
76762;BME280;65705;51.032;13.790;2023-04-01T05:41:24;98660.19;;;11.48;65.52
76762;BME280;65705;51.032;13.790;2023-04-01T05:43:50;98666.25;;;11.48;65.80
76762;BME280;65705;51.032;13.790;2023-04-01T05:46:51;98656.56;;;11.49;65.39
76762;BME280;65705;51.032;13.790;2023-04-01T05:49:20;98665.44;;;11.54;65.65
76762;BME280;65705;51.032;13.790;2023-04-01T05:51:46;98674.56;;;11.58;65.53
76762;BME280;65705;51.032;13.790;2023-04-01T05:54:12;98675.97;;;11.61;65.48
76762;BME280;65705;51.032;13.790;2023-04-01T05:56:38;98669.69;;;11.62;65.55
76762;BME280;65705;51.032;13.790;2023-04-01T05:59:04;98674.97;;;11.55;65.57
76762;BME280;65705;51.032;13.790;2023-04-01T06:01:31;98677.78;;;11.60;65.23
76762;BME280;65705;51.032;13.790;2023-04-01T06:03:56;98669.56;;;11.77;64.45
76762;BME280;65705;51.032;13.790;2023-04-01T06:06:27;98680.69;;;11.79;65.28
76762;BME280;65705;51.032;13.790;2023-04-01T06:09:17;98681.69;;;11.71;65.70
76762;BME280;65705;51.032;13.790;2023-04-01T06:12:07;98678.88;;;11.79;64.89
76762;BME280;65705;51.032;13.790;2023-04-01T06:15:12;98680.69;;;11.72;66.03
76762;BME280;65705;51.032;13.790;2023-04-01T06:17:50;98683.47;;;11.64;66.37
76762;BME280;65705;51.032;13.790;2023-04-01T06:20:24;98691.56;;;11.69;65.87
76762;BME280;65705;51.032;13.790;2023-04-01T06:31:36;98694.22;;;11.82;65.24
76762;BME280;65705;51.032;13.790;2023-04-01T06:46:21;98690.38;;;12.11;63.09
76762;BME280;65705;51.032;13.790;2023-04-01T06:49:48;98695.44;;;12.25;63.04
76762;BME280;65705;51.032;13.790;2023-04-01T06:55:44;98686.13;;;12.29;62.29
76762;BME280;65705;51.032;13.790;2023-04-01T06:58:42;98695.66;;;12.24;61.69
76762;BME280;65705;51.032;13.790;2023-04-01T07:01:14;98698.66;;;12.34;61.97
76762;BME280;65705;51.032;13.790;2023-04-01T07:03:57;98693.59;;;12.39;61.58
76762;BME280;65705;51.032;13.790;2023-04-01T07:06:30;98699.47;;;12.41;61.43
76762;BME280;65705;51.032;13.790;2023-04-01T07:09:05;98704.13;;;12.45;61.16
76762;BME280;65705;51.032;13.790;2023-04-01T07:11:53;98698.41;;;12.55;60.85
76762;BME280;65705;51.032;13.790;2023-04-01T07:14:42;98705.50;;;12.61;61.05
76762;BME280;65705;51.032;13.790;2023-04-01T07:17:15;98705.28;;;12.62;60.44
76762;BME280;65705;51.032;13.790;2023-04-01T07:19:48;98716.25;;;12.59;60.91
76762;BME280;65705;51.032;13.790;2023-04-01T07:22:29;98704.50;;;12.55;60.90
76762;BME280;65705;51.032;13.790;2023-04-01T07:25:23;98704.06;;;12.58;60.45
76762;BME280;65705;51.032;13.790;2023-04-01T07:28:12;98710.13;;;12.72;63.46
76762;BME280;65705;51.032;13.790;2023-04-01T07:36:39;98716.34;;;13.04;59.20
76762;BME280;65705;51.032;13.790;2023-04-01T07:42:17;98718.19;;;12.90;58.79
76762;BME280;65705;51.032;13.790;2023-04-01T07:45:14;98712.91;;;12.84;59.61
76762;BME280;65705;51.032;13.790;2023-04-01T07:56:51;98718.19;;;12.84;59.95
76762;BME280;65705;51.032;13.790;2023-04-01T08:02:37;98728.72;;;12.90;59.34
76762;BME280;65705;51.032;13.790;2023-04-01T08:05:22;98735.97;;;12.95;59.42
76762;BME280;65705;51.032;13.790;2023-04-01T08:22:27;98747.78;;;13.43;58.49
76762;BME280;65705;51.032;13.790;2023-04-01T08:24:59;98743.88;;;13.52;58.96
76762;BME280;65705;51.032;13.790;2023-04-01T08:27:35;98747.28;;;13.65;58.94
76762;BME280;65705;51.032;13.790;2023-04-01T08:30:21;98745.53;;;13.84;57.90
76762;BME280;65705;51.032;13.790;2023-04-01T08:32:57;98748.97;;;13.85;56.68
76762;BME280;65705;51.032;13.790;2023-04-01T08:35:46;98741.22;;;13.90;56.24
76762;BME280;65705;51.032;13.790;2023-04-01T08:38:19;98743.25;;;13.94;57.24
76762;BME280;65705;51.032;13.790;2023-04-01T08:46:19;98738.50;;;13.34;57.20
76762;BME280;65705;51.032;13.790;2023-04-01T08:57:13;98747.88;;;13.30;57.73
76762;BME280;65705;51.032;13.790;2023-04-01T09:11:33;98758.22;;;13.62;57.59
76762;BME280;65705;51.032;13.790;2023-04-01T09:14:34;98755.03;;;13.54;56.97
76762;BME280;65705;51.032;13.790;2023-04-01T09:17:44;98751.00;;;13.51;57.40
76762;BME280;65705;51.032;13.790;2023-04-01T09:37:21;98767.78;;;13.63;56.21
76762;BME280;65705;51.032;13.790;2023-04-01T09:42:43;98761.09;;;13.92;55.98
76762;BME280;65705;51.032;13.790;2023-04-01T09:48:30;98756.56;;;13.68;55.97
76762;BME280;65705;51.032;13.790;2023-04-01T09:51:16;98757.19;;;13.70;56.44
76762;BME280;65705;51.032;13.790;2023-04-01T10:11:27;98775.53;;;13.52;56.33
76762;BME280;65705;51.032;13.790;2023-04-01T10:14:10;98782.00;;;13.56;56.18
76762;BME280;65705;51.032;13.790;2023-04-01T10:19:28;98786.00;;;13.65;55.86
76762;BME280;65705;51.032;13.790;2023-04-01T10:28:09;98777.28;;;13.71;55.83
76762;BME280;65705;51.032;13.790;2023-04-01T10:36:54;98779.53;;;13.61;57.23
76762;BME280;65705;51.032;13.790;2023-04-01T10:55:36;98787.28;;;14.25;56.58
76762;BME280;65705;51.032;13.790;2023-04-01T11:05:50;98769.50;;;14.38;55.87
76762;BME280;65705;51.032;13.790;2023-04-01T11:27:56;98781.66;;;15.07;54.11
76762;BME280;65705;51.032;13.790;2023-04-01T11:30:49;98778.56;;;15.10;54.44
76762;BME280;65705;51.032;13.790;2023-04-01T11:33:28;98784.81;;;15.15;55.08
76762;BME280;65705;51.032;13.790;2023-04-01T11:36:09;98789.16;;;15.28;57.53
76762;BME280;65705;51.032;13.790;2023-04-01T11:48:26;98784.97;;;14.84;56.01
76762;BME280;65705;51.032;13.790;2023-04-01T12:05:14;98802.44;;;15.21;57.29
76762;BME280;65705;51.032;13.790;2023-04-01T12:07:57;98785.84;;;15.32;57.16
76762;BME280;65705;51.032;13.790;2023-04-01T12:13:28;98795.47;;;15.27;56.19
76762;BME280;65705;51.032;13.790;2023-04-01T12:18:37;98799.31;;;14.88;56.94
76762;BME280;65705;51.032;13.790;2023-04-01T12:23:56;98799.66;;;14.98;55.91
76762;BME280;65705;51.032;13.790;2023-04-01T12:54:46;98808.91;;;14.02;62.07
76762;BME280;65705;51.032;13.790;2023-04-01T13:05:24;98815.66;;;14.29;61.29
76762;BME280;65705;51.032;13.790;2023-04-01T13:10:42;98810.50;;;14.65;60.28
76762;BME280;65705;51.032;13.790;2023-04-01T13:16:00;98808.16;;;15.00;58.73
76762;BME280;65705;51.032;13.790;2023-04-01T13:18:52;98813.06;;;15.15;57.85
76762;BME280;65705;51.032;13.790;2023-04-01T13:24:19;98809.78;;;15.19;57.69
76762;BME280;65705;51.032;13.790;2023-04-01T13:27:12;98802.81;;;15.25;57.69
76762;BME280;65705;51.032;13.790;2023-04-01T13:35:36;98819.72;;;15.60;56.34
76762;BME280;65705;51.032;13.790;2023-04-01T13:43:45;98819.22;;;15.81;52.93
76762;BME280;65705;51.032;13.790;2023-04-01T13:49:18;98821.00;;;16.17;50.87
76762;BME280;65705;51.032;13.790;2023-04-01T13:57:24;98821.31;;;16.50;50.42
76762;BME280;65705;51.032;13.790;2023-04-01T14:02:47;98835.06;;;15.99;48.96
76762;BME280;65705;51.032;13.790;2023-04-01T14:17:10;98823.63;;;15.57;50.02
76762;BME280;65705;51.032;13.790;2023-04-01T14:19:43;98825.09;;;15.53;51.52
76762;BME280;65705;51.032;13.790;2023-04-01T14:27:41;98834.22;;;15.33;53.57
76762;BME280;65705;51.032;13.790;2023-04-01T14:30:15;98842.38;;;15.13;53.75
76762;BME280;65705;51.032;13.790;2023-04-01T14:32:53;98841.31;;;14.96;54.44
76762;BME280;65705;51.032;13.790;2023-04-01T14:35:40;98845.47;;;15.10;54.89
76762;BME280;65705;51.032;13.790;2023-04-01T14:47:00;98844.16;;;15.37;54.32
76762;BME280;65705;51.032;13.790;2023-04-01T14:49:32;98840.09;;;15.41;53.67
76762;BME280;65705;51.032;13.790;2023-04-01T14:54:36;98859.88;;;14.65;55.16
76762;BME280;65705;51.032;13.790;2023-04-01T14:57:15;98853.84;;;14.58;56.01
76762;BME280;65705;51.032;13.790;2023-04-01T15:02:53;98856.50;;;15.25;54.90
76762;BME280;65705;51.032;13.790;2023-04-01T15:05:43;98862.94;;;15.29;50.51
76762;BME280;65705;51.032;13.790;2023-04-01T15:08:26;98861.78;;;15.25;50.79
76762;BME280;65705;51.032;13.790;2023-04-01T15:10:57;98862.78;;;15.24;49.78
76762;BME280;65705;51.032;13.790;2023-04-01T15:19:14;98883.59;;;14.96;50.35
76762;BME280;65705;51.032;13.790;2023-04-01T15:21:48;98876.56;;;15.08;50.49
76762;BME280;65705;51.032;13.790;2023-04-01T15:24:40;98884.91;;;14.87;51.43
76762;BME280;65705;51.032;13.790;2023-04-01T15:29:56;98888.91;;;14.71;51.82
76762;BME280;65705;51.032;13.790;2023-04-01T15:38:36;98894.78;;;14.42;53.88
76762;BME280;65705;51.032;13.790;2023-04-01T15:41:17;98894.56;;;14.44;54.11
76762;BME280;65705;51.032;13.790;2023-04-01T15:43:47;98892.31;;;14.47;54.29
76762;BME280;65705;51.032;13.790;2023-04-01T15:54:36;98905.00;;;14.63;54.50
76762;BME280;65705;51.032;13.790;2023-04-01T15:57:08;98903.56;;;14.61;54.08
76762;BME280;65705;51.032;13.790;2023-04-01T15:59:56;98914.63;;;14.51;54.68
76762;BME280;65705;51.032;13.790;2023-04-01T16:08:15;98917.22;;;14.27;54.98
76762;BME280;65705;51.032;13.790;2023-04-01T16:18:58;98919.34;;;13.99;56.76
76762;BME280;65705;51.032;13.790;2023-04-01T16:21:57;98926.91;;;13.82;55.87
76762;BME280;65705;51.032;13.790;2023-04-01T16:24:47;98931.22;;;13.77;56.78
76762;BME280;65705;51.032;13.790;2023-04-01T16:46:35;98964.72;;;13.30;58.62
76762;BME280;65705;51.032;13.790;2023-04-01T16:54:39;98972.03;;;13.22;59.43
76762;BME280;65705;51.032;13.790;2023-04-01T17:02:14;98984.78;;;13.25;60.28
76762;BME280;65705;51.032;13.790;2023-04-01T17:07:30;98991.69;;;13.06;61.11
76762;BME280;65705;51.032;13.790;2023-04-01T17:18:04;99016.38;;;12.99;63.27
76762;BME280;65705;51.032;13.790;2023-04-01T17:20:35;99025.69;;;12.95;63.54
76762;BME280;65705;51.032;13.790;2023-04-01T17:23:32;99019.00;;;12.92;63.49
76762;BME280;65705;51.032;13.790;2023-04-01T17:34:31;99024.25;;;12.86;67.34
76762;BME280;65705;51.032;13.790;2023-04-01T17:37:09;99031.13;;;12.80;68.42
76762;BME280;65705;51.032;13.790;2023-04-01T17:40:21;99028.69;;;12.72;69.76
76762;BME280;65705;51.032;13.790;2023-04-01T17:43:00;99040.00;;;12.66;70.34
76762;BME280;65705;51.032;13.790;2023-04-01T17:51:06;99043.81;;;12.50;69.96
76762;BME280;65705;51.032;13.790;2023-04-01T17:59:24;99046.19;;;12.39;73.67
76762;BME280;65705;51.032;13.790;2023-04-01T18:02:21;99050.16;;;12.22;74.49
76762;BME280;65705;51.032;13.790;2023-04-01T18:18:42;99064.69;;;12.18;73.88
76762;BME280;65705;51.032;13.790;2023-04-01T18:24:10;99063.66;;;12.12;74.53
76762;BME280;65705;51.032;13.790;2023-04-01T18:26:43;99073.00;;;12.15;74.44
76762;BME280;65705;51.032;13.790;2023-04-01T18:32:07;99078.66;;;12.18;75.13
76762;BME280;65705;51.032;13.790;2023-04-01T18:34:48;99090.19;;;12.17;74.90
76762;BME280;65705;51.032;13.790;2023-04-01T18:37:24;99084.50;;;12.14;74.48
76762;BME280;65705;51.032;13.790;2023-04-01T18:40:00;99086.69;;;12.10;74.67
76762;BME280;65705;51.032;13.790;2023-04-01T18:45:48;99094.38;;;12.05;74.46
76762;BME280;65705;51.032;13.790;2023-04-01T18:48:37;99097.94;;;11.98;74.74
76762;BME280;65705;51.032;13.790;2023-04-01T18:54:16;99103.81;;;11.93;74.63
76762;BME280;65705;51.032;13.790;2023-04-01T18:56:47;99110.47;;;11.96;74.70
76762;BME280;65705;51.032;13.790;2023-04-01T19:02:37;99122.63;;;11.97;74.84
76762;BME280;65705;51.032;13.790;2023-04-01T19:07:52;99118.56;;;11.94;75.73
76762;BME280;65705;51.032;13.790;2023-04-01T19:15:52;99130.66;;;11.89;76.50
76762;BME280;65705;51.032;13.790;2023-04-01T19:21:18;99136.31;;;11.86;76.90
76762;BME280;65705;51.032;13.790;2023-04-01T19:26:32;99132.78;;;11.72;77.61
76762;BME280;65705;51.032;13.790;2023-04-01T19:37:02;99152.09;;;11.43;78.63
76762;BME280;65705;51.032;13.790;2023-04-01T19:45:00;99157.06;;;11.38;78.01
76762;BME280;65705;51.032;13.790;2023-04-01T19:52:47;99168.53;;;11.31;78.18
76762;BME280;65705;51.032;13.790;2023-04-01T19:55:36;99168.69;;;11.29;78.35
76762;BME280;65705;51.032;13.790;2023-04-01T20:00:53;99172.34;;;11.28;78.27
76762;BME280;65705;51.032;13.790;2023-04-01T20:06:15;99187.66;;;11.25;77.92
76762;BME280;65705;51.032;13.790;2023-04-01T20:11:55;99198.59;;;11.28;77.63
76762;BME280;65705;51.032;13.790;2023-04-01T20:19:43;99200.34;;;11.21;77.89
76762;BME280;65705;51.032;13.790;2023-04-01T20:25:26;99213.00;;;11.32;77.82
76762;BME280;65705;51.032;13.790;2023-04-01T20:28:04;99213.25;;;11.37;77.60
76762;BME280;65705;51.032;13.790;2023-04-01T20:30:38;99215.88;;;11.37;77.54
76762;BME280;65705;51.032;13.790;2023-04-01T20:33:26;99216.31;;;11.41;77.18
76762;BME280;65705;51.032;13.790;2023-04-01T20:36:06;99223.19;;;11.42;76.99
76762;BME280;65705;51.032;13.790;2023-04-01T20:39:08;99219.63;;;11.49;76.98
76762;BME280;65705;51.032;13.790;2023-04-01T20:42:01;99221.53;;;11.55;76.71
76762;BME280;65705;51.032;13.790;2023-04-01T20:44:43;99226.97;;;11.54;76.73
76762;BME280;65705;51.032;13.790;2023-04-01T20:50:28;99226.16;;;11.53;77.45
76762;BME280;65705;51.032;13.790;2023-04-01T20:52:40;99228.16;;;11.51;77.31
76762;BME280;65705;51.032;13.790;2023-04-01T20:58:04;99234.78;;;11.47;77.38
76762;BME280;65705;51.032;13.790;2023-04-01T21:00:53;99245.47;;;11.46;77.39
76762;BME280;65705;51.032;13.790;2023-04-01T21:03:45;99241.47;;;11.50;77.37
76762;BME280;65705;51.032;13.790;2023-04-01T21:09:38;99247.75;;;11.49;77.31
76762;BME280;65705;51.032;13.790;2023-04-01T21:22:59;99262.09;;;11.32;78.90
76762;BME280;65705;51.032;13.790;2023-04-01T21:37:32;99282.84;;;11.27;79.33
76762;BME280;65705;51.032;13.790;2023-04-01T22:08:29;99311.03;;;11.04;78.44
76762;BME280;65705;51.032;13.790;2023-04-01T22:16:05;99311.72;;;10.83;79.37
76762;BME280;65705;51.032;13.790;2023-04-01T22:18:45;99313.16;;;10.71;79.57
76762;BME280;65705;51.032;13.790;2023-04-01T22:21:25;99321.41;;;10.68;79.63
76762;BME280;65705;51.032;13.790;2023-04-01T22:24:03;99316.34;;;10.81;79.91
76762;BME280;65705;51.032;13.790;2023-04-01T22:26:50;99322.94;;;10.63;80.30
76762;BME280;65705;51.032;13.790;2023-04-01T22:32:09;99327.41;;;10.54;80.51
76762;BME280;65705;51.032;13.790;2023-04-01T22:34:49;99328.69;;;10.58;80.64
76762;BME280;65705;51.032;13.790;2023-04-01T22:37:37;99342.19;;;10.55;80.51
76762;BME280;65705;51.032;13.790;2023-04-01T22:43:03;99350.00;;;10.40;81.27
76762;BME280;65705;51.032;13.790;2023-04-01T22:49:17;99342.41;;;10.45;79.93
76762;BME280;65705;51.032;13.790;2023-04-01T22:51:57;99353.69;;;10.31;80.02
76762;BME280;65705;51.032;13.790;2023-04-01T22:55:08;99362.09;;;10.27;80.46
76762;BME280;65705;51.032;13.790;2023-04-01T23:00:04;99366.34;;;9.97;81.43
76762;BME280;65705;51.032;13.790;2023-04-01T23:03:01;99365.47;;;10.05;80.74
76762;BME280;65705;51.032;13.790;2023-04-01T23:05:31;99372.34;;;10.06;80.10
76762;BME280;65705;51.032;13.790;2023-04-01T23:08:26;99369.91;;;10.04;80.04
76762;BME280;65705;51.032;13.790;2023-04-01T23:10:55;99385.41;;;9.91;80.52
76762;BME280;65705;51.032;13.790;2023-04-01T23:13:27;99387.88;;;9.85;80.58
76762;BME280;65705;51.032;13.790;2023-04-01T23:15:55;99396.34;;;9.64;81.10